createdAt,value
2023-03-17T00:00:03.364Z,0
2023-03-17T00:01:43.100Z,0
2023-03-17T00:03:22.872Z,0
2023-03-17T00:05:02.640Z,0
2023-03-17T00:06:42.411Z,0
2023-03-17T00:08:22.168Z,0
2023-03-17T00:10:01.951Z,0
2023-03-17T00:11:41.712Z,0
2023-03-17T00:13:21.493Z,0
2023-03-17T00:15:01.256Z,0
2023-03-17T00:16:41.015Z,0
2023-03-17T00:18:20.773Z,0
2023-03-17T00:20:00.543Z,0
2023-03-17T00:21:40.333Z,0
2023-03-17T00:23:20.094Z,0
2023-03-17T00:24:59.883Z,0
2023-03-17T00:26:39.605Z,0
2023-03-17T00:28:19.402Z,0
2023-03-17T00:29:59.143Z,0
2023-03-17T00:31:38.908Z,0
2023-03-17T00:33:18.672Z,0
2023-03-17T00:34:58.458Z,0
2023-03-17T00:36:38.226Z,0
2023-03-17T00:38:17.972Z,0
2023-03-17T00:39:57.821Z,0
2023-03-17T00:41:37.529Z,0
2023-03-17T00:43:17.286Z,0
2023-03-17T00:44:57.037Z,0
2023-03-17T00:46:36.817Z,0
2023-03-17T00:48:16.574Z,0
2023-03-17T00:49:56.350Z,0
2023-03-17T00:51:36.109Z,0
2023-03-17T00:53:15.892Z,0
2023-03-17T00:54:55.679Z,0
2023-03-17T00:56:35.422Z,0
2023-03-17T00:58:15.204Z,0
2023-03-17T00:59:54.964Z,0
2023-03-17T01:01:34.733Z,0
2023-03-17T01:03:14.582Z,0
2023-03-17T01:04:54.275Z,0
2023-03-17T01:06:34.028Z,0
2023-03-17T01:08:13.792Z,0
2023-03-17T01:09:53.555Z,0
2023-03-17T01:11:33.339Z,0
2023-03-17T01:13:13.092Z,0
2023-03-17T01:14:52.928Z,0
2023-03-17T01:16:32.683Z,0
2023-03-17T01:18:12.547Z,0
2023-03-17T01:19:52.156Z,0
2023-03-17T01:21:31.936Z,0
2023-03-17T01:23:11.729Z,0
2023-03-17T01:24:51.487Z,0
2023-03-17T01:26:31.237Z,0
2023-03-17T01:28:11.001Z,0
2023-03-17T01:29:50.827Z,0
2023-03-17T01:31:30.545Z,0
2023-03-17T01:33:10.295Z,0
2023-03-17T01:34:50.076Z,0
2023-03-17T01:36:29.837Z,0
2023-03-17T01:38:09.647Z,0
2023-03-17T01:39:49.395Z,0
2023-03-17T01:41:29.134Z,0
2023-03-17T01:43:08.899Z,0
2023-03-17T01:44:48.670Z,0
2023-03-17T01:46:28.457Z,0
2023-03-17T01:48:08.205Z,0
2023-03-17T01:49:47.976Z,0
2023-03-17T01:51:27.744Z,0
2023-03-17T01:53:07.507Z,0
2023-03-17T01:54:47.271Z,0
2023-03-17T01:56:27.069Z,0
2023-03-17T01:58:06.821Z,0
2023-03-17T01:59:46.580Z,0
2023-03-17T02:01:26.336Z,0
2023-03-17T02:03:06.379Z,0
2023-03-17T02:04:45.866Z,0
2023-03-17T02:06:25.652Z,0
2023-03-17T02:08:05.413Z,0
2023-03-17T02:09:45.177Z,0
2023-03-17T02:11:25.000Z,0
2023-03-17T02:13:04.706Z,0
2023-03-17T02:14:44.478Z,0
2023-03-17T02:16:24.236Z,0
2023-03-17T02:18:04.040Z,0
2023-03-17T02:19:43.783Z,0
2023-03-17T02:21:23.547Z,0
2023-03-17T02:23:03.312Z,0
2023-03-17T02:24:43.094Z,0
2023-03-17T02:26:22.903Z,0
2023-03-17T02:28:02.640Z,0
2023-03-17T02:29:42.404Z,0
2023-03-17T02:31:22.141Z,0
2023-03-17T02:33:01.915Z,0
2023-03-17T02:34:41.697Z,0
2023-03-17T02:36:21.449Z,0
2023-03-17T02:38:01.228Z,0
2023-03-17T02:39:41.013Z,0
2023-03-17T02:41:20.764Z,0
2023-03-17T02:43:00.541Z,0
2023-03-17T02:44:40.288Z,0
2023-03-17T02:46:20.064Z,0
2023-03-17T02:47:59.825Z,0
2023-03-17T02:49:39.610Z,0
2023-03-17T02:51:19.358Z,0
2023-03-17T02:52:59.173Z,0
2023-03-17T02:54:38.953Z,0
2023-03-17T02:56:18.665Z,0
2023-03-17T02:57:58.435Z,0
2023-03-17T02:59:38.194Z,0
2023-03-17T03:01:18.034Z,0
2023-03-17T03:02:57.744Z,0
2023-03-17T03:04:37.563Z,0
2023-03-17T03:06:17.270Z,0
2023-03-17T03:07:57.043Z,0
2023-03-17T03:09:36.860Z,0
2023-03-17T03:11:16.610Z,0
2023-03-17T03:12:56.342Z,0
2023-03-17T03:14:36.169Z,0
2023-03-17T03:16:15.873Z,0
2023-03-17T03:17:55.645Z,0
2023-03-17T03:19:35.407Z,0
2023-03-17T03:21:15.166Z,0
2023-03-17T03:22:54.967Z,0
2023-03-17T03:24:34.794Z,0
2023-03-17T03:26:14.569Z,0
2023-03-17T03:27:54.245Z,0
2023-03-17T03:29:34.010Z,0
2023-03-17T03:31:13.811Z,0
2023-03-17T03:32:53.552Z,0
2023-03-17T03:34:33.329Z,0
2023-03-17T03:36:13.085Z,0
2023-03-17T03:37:52.864Z,0
2023-03-17T03:39:32.609Z,0
2023-03-17T03:41:12.433Z,0
2023-03-17T03:42:52.195Z,0
2023-03-17T03:44:31.916Z,0
2023-03-17T03:46:11.683Z,0
2023-03-17T03:47:51.446Z,0
2023-03-17T03:49:31.220Z,0
2023-03-17T03:51:10.979Z,0
2023-03-17T03:52:50.773Z,0
2023-03-17T03:54:30.535Z,0
2023-03-17T03:56:10.343Z,0
2023-03-17T03:57:50.065Z,0
2023-03-17T03:59:29.823Z,0
2023-03-17T04:01:09.589Z,0
2023-03-17T04:02:49.374Z,0
2023-03-17T04:04:29.132Z,0
2023-03-17T04:06:08.921Z,0
2023-03-17T04:07:48.718Z,0
2023-03-17T04:09:28.416Z,0
2023-03-17T04:11:08.198Z,0
2023-03-17T04:12:48.010Z,0
2023-03-17T04:14:27.734Z,0
2023-03-17T04:16:07.493Z,0
2023-03-17T04:17:47.261Z,0
2023-03-17T04:19:27.015Z,0
2023-03-17T04:21:06.905Z,0
2023-03-17T04:22:46.565Z,0
2023-03-17T04:24:26.325Z,0
2023-03-17T04:26:06.082Z,0
2023-03-17T04:27:45.858Z,0
2023-03-17T04:29:25.630Z,0
2023-03-17T04:31:05.527Z,0
2023-03-17T04:32:45.289Z,0
2023-03-17T04:34:24.975Z,0
2023-03-17T04:36:04.709Z,0
2023-03-17T04:37:44.470Z,0
2023-03-17T04:39:24.234Z,0
2023-03-17T04:41:03.995Z,0
2023-03-17T04:42:43.813Z,0
2023-03-17T04:44:23.536Z,0
2023-03-17T04:46:03.314Z,0
2023-03-17T04:47:43.065Z,0
2023-03-17T04:49:22.825Z,0
2023-03-17T04:51:02.665Z,0
2023-03-17T04:52:42.376Z,0
2023-03-17T04:54:22.133Z,0
2023-03-17T04:56:01.906Z,0
2023-03-17T04:57:41.686Z,0
2023-03-17T04:59:21.482Z,0
2023-03-17T05:01:01.217Z,0
2023-03-17T05:02:40.979Z,0
2023-03-17T05:04:20.749Z,0
2023-03-17T05:06:00.505Z,0
2023-03-17T05:07:40.275Z,0
2023-03-17T05:09:20.043Z,0
2023-03-17T05:10:59.982Z,0
2023-03-17T05:12:39.597Z,0
2023-03-17T05:14:19.349Z,0
2023-03-17T05:15:59.170Z,0
2023-03-17T05:17:38.878Z,0
2023-03-17T05:19:18.639Z,0
2023-03-17T05:20:58.410Z,0
2023-03-17T05:22:38.178Z,0
2023-03-17T05:24:17.961Z,0.01
2023-03-17T05:25:57.712Z,0
2023-03-17T05:27:37.469Z,0.03
2023-03-17T05:29:17.238Z,0.05
2023-03-17T05:30:57.044Z,0.03
2023-03-17T05:32:36.809Z,0.08
2023-03-17T05:34:16.557Z,0.08
2023-03-17T05:35:56.317Z,0
2023-03-17T05:37:36.083Z,0.08
2023-03-17T05:39:15.868Z,0.1
2023-03-17T05:40:55.628Z,0.15
2023-03-17T05:42:35.581Z,0.13
2023-03-17T05:44:15.164Z,0.16
2023-03-17T05:45:54.946Z,0.21
2023-03-17T05:47:34.729Z,0.21
2023-03-17T05:49:14.475Z,0.27
2023-03-17T05:50:54.256Z,0.27
2023-03-17T05:52:34.016Z,0.27
2023-03-17T05:54:13.862Z,0.28
2023-03-17T05:55:53.551Z,0.22
2023-03-17T05:57:33.343Z,0.22
2023-03-17T05:59:13.107Z,0.24
2023-03-17T06:00:52.867Z,0.44
2023-03-17T06:02:32.641Z,0.27
2023-03-17T06:04:12.510Z,0.3
2023-03-17T06:05:52.192Z,0.32
2023-03-17T06:07:31.990Z,0.32
2023-03-17T06:09:11.778Z,0.33
2023-03-17T06:10:51.613Z,0.34
2023-03-17T06:12:31.291Z,0.33
2023-03-17T06:14:11.079Z,0.35
2023-03-17T06:15:50.837Z,0.36
2023-03-17T06:17:30.569Z,0.39
2023-03-17T06:19:10.374Z,0.42
2023-03-17T06:20:50.111Z,0.44
2023-03-17T06:22:29.905Z,0.44
2023-03-17T06:24:09.646Z,0.46
2023-03-17T06:25:49.571Z,0.45
2023-03-17T06:27:29.198Z,0.5
2023-03-17T06:29:08.974Z,0.49
2023-03-17T06:30:48.795Z,0.51
2023-03-17T06:32:28.517Z,0.57
2023-03-17T06:34:08.291Z,0.64
2023-03-17T06:35:48.144Z,0.66
2023-03-17T06:37:27.859Z,0.68
2023-03-17T06:39:07.600Z,0.72
2023-03-17T06:40:47.360Z,0.74
2023-03-17T06:42:27.121Z,0.76
2023-03-17T06:44:06.920Z,0.78
2023-03-17T06:45:46.855Z,0.8
2023-03-17T06:47:26.446Z,0.8
2023-03-17T06:49:06.213Z,0.78
2023-03-17T06:50:45.964Z,0.78
2023-03-17T06:52:25.740Z,0.81
2023-03-17T06:54:05.528Z,0.89
2023-03-17T06:55:45.295Z,0.96
2023-03-17T06:57:25.066Z,1.04
2023-03-17T06:59:04.831Z,1.13
2023-03-17T07:00:44.600Z,2.64
2023-03-17T07:02:24.372Z,1.69
2023-03-17T07:04:04.191Z,1.55
2023-03-17T07:05:43.968Z,1.43
2023-03-17T07:07:23.713Z,1.37
2023-03-17T07:09:03.445Z,1.31
2023-03-17T07:10:43.221Z,1.26
2023-03-17T07:12:22.982Z,1.23
2023-03-17T07:14:02.772Z,1.23
2023-03-17T07:15:42.628Z,1.22
2023-03-17T07:17:22.296Z,1.21
2023-03-17T07:19:02.117Z,1.16
2023-03-17T07:20:41.861Z,1.19
2023-03-17T07:22:21.618Z,1.17
2023-03-17T07:24:01.460Z,1.19
2023-03-17T07:25:41.294Z,1.16
2023-03-17T07:27:20.912Z,1.16
2023-03-17T07:29:00.700Z,1.14
2023-03-17T07:30:40.463Z,1.16
2023-03-17T07:32:20.239Z,1.13
2023-03-17T07:33:59.999Z,1.14
2023-03-17T07:35:39.766Z,1.14
2023-03-17T07:37:19.540Z,1.11
2023-03-17T07:38:59.374Z,1.14
2023-03-17T07:40:39.074Z,1.13
2023-03-17T07:42:18.850Z,1.14
2023-03-17T07:43:58.615Z,1.13
2023-03-17T07:45:38.462Z,1.27
2023-03-17T07:47:18.163Z,1.14
2023-03-17T07:48:57.932Z,1.12
2023-03-17T07:50:37.685Z,1.12
2023-03-17T07:52:17.468Z,1.14
2023-03-17T07:53:57.230Z,1.12
2023-03-17T07:55:37.057Z,1.13
2023-03-17T07:57:16.779Z,1.1
2023-03-17T07:58:56.550Z,1.13
2023-03-17T08:00:36.320Z,1.11
2023-03-17T08:02:16.102Z,1.12
2023-03-17T08:03:55.860Z,1.11
2023-03-17T08:05:35.734Z,1.11
2023-03-17T08:07:15.407Z,1.11
2023-03-17T08:08:55.197Z,1.1
2023-03-17T08:10:35.091Z,1.09
2023-03-17T08:12:14.769Z,1.08
2023-03-17T08:13:54.529Z,1.1
2023-03-17T08:15:34.303Z,1.09
2023-03-17T08:17:14.028Z,1.08
2023-03-17T08:18:53.806Z,1.07
2023-03-17T08:20:33.753Z,1.11
2023-03-17T08:22:13.378Z,1.1
2023-03-17T08:23:53.107Z,1.11
2023-03-17T08:25:32.880Z,1.1
2023-03-17T08:27:12.737Z,1.09
2023-03-17T08:28:52.495Z,1.08
2023-03-17T08:30:32.184Z,1.1
2023-03-17T08:32:11.979Z,1.1
2023-03-17T08:33:51.823Z,1.08
2023-03-17T08:35:31.672Z,1.11
2023-03-17T08:37:11.276Z,1.05
2023-03-17T08:38:51.055Z,1.09
2023-03-17T08:40:30.931Z,1.07
2023-03-17T08:42:10.701Z,1.08
2023-03-17T08:43:50.356Z,1.08
2023-03-17T08:45:30.282Z,1.04
2023-03-17T08:47:09.907Z,1.08
2023-03-17T08:48:49.731Z,1.07
2023-03-17T08:50:29.426Z,1.05
2023-03-17T08:52:09.201Z,1.04
2023-03-17T08:53:48.996Z,1.09
2023-03-17T08:55:28.790Z,1.08
2023-03-17T08:57:08.514Z,1.09
2023-03-17T08:58:48.327Z,1.07
2023-03-17T09:00:28.090Z,1.04
2023-03-17T09:02:07.844Z,1.03
2023-03-17T09:03:47.658Z,1.04
2023-03-17T09:05:27.526Z,1.04
2023-03-17T09:07:07.125Z,1.07
2023-03-17T09:08:46.965Z,1.05
2023-03-17T09:10:26.694Z,1.07
2023-03-17T09:12:06.468Z,1.09
2023-03-17T09:13:46.284Z,1.05
2023-03-17T09:15:26.092Z,1.08
2023-03-17T09:17:05.834Z,1.09
2023-03-17T09:18:45.522Z,1.08
2023-03-17T09:20:25.332Z,1.04
2023-03-17T09:22:05.096Z,1.02
2023-03-17T09:23:44.857Z,1.03
2023-03-17T09:25:24.621Z,1.01
2023-03-17T09:27:04.377Z,1.04
2023-03-17T09:28:44.193Z,1.05
2023-03-17T09:30:23.934Z,1.05
2023-03-17T09:32:03.685Z,1.05
2023-03-17T09:33:43.460Z,1.04
2023-03-17T09:35:23.297Z,1.04
2023-03-17T09:37:02.985Z,1.04
2023-03-17T09:38:42.821Z,1.04
2023-03-17T09:40:22.560Z,1.02
2023-03-17T09:42:02.315Z,1.04
2023-03-17T09:43:42.346Z,1.04
2023-03-17T09:45:21.853Z,1.03
2023-03-17T09:47:01.613Z,1.04
2023-03-17T09:48:41.438Z,1.03
2023-03-17T09:50:21.309Z,1.04
2023-03-17T09:52:00.973Z,1.03
2023-03-17T09:53:40.734Z,1.03
2023-03-17T09:55:20.548Z,1.05
2023-03-17T09:57:00.276Z,1.04
2023-03-17T09:58:40.011Z,1.02
2023-03-17T10:00:19.781Z,1.02
2023-03-17T10:01:59.554Z,0
2023-03-17T10:03:39.329Z,0
2023-03-17T10:05:19.163Z,0
2023-03-17T10:06:58.907Z,0
2023-03-17T10:08:38.679Z,0
2023-03-17T10:10:18.395Z,0
2023-03-17T10:11:58.286Z,0
2023-03-17T10:13:37.972Z,0.19
2023-03-17T10:15:18.802Z,0.18
2023-03-17T10:16:57.483Z,0.23
2023-03-17T10:18:37.261Z,0.22
2023-03-17T10:20:17.026Z,0.23
2023-03-17T10:21:56.775Z,0.25
2023-03-17T10:23:36.622Z,0.27
2023-03-17T10:25:16.316Z,0.26
2023-03-17T10:26:56.218Z,0.27
2023-03-17T10:28:35.877Z,0.27
2023-03-17T10:30:15.635Z,0.27
2023-03-17T10:31:55.420Z,0.3
2023-03-17T10:33:35.235Z,0.28
2023-03-17T10:35:14.978Z,0.28
2023-03-17T10:36:54.731Z,0.29
2023-03-17T10:38:34.489Z,0.26
2023-03-17T10:40:14.254Z,0.3
2023-03-17T10:41:54.022Z,0.27
2023-03-17T10:43:34.000Z,0.31
2023-03-17T10:45:13.776Z,0.28
2023-03-17T10:46:53.470Z,0.25
2023-03-17T10:48:33.280Z,0.26
2023-03-17T10:50:13.057Z,0.32
2023-03-17T10:51:52.677Z,0.27
2023-03-17T10:53:32.564Z,0.28
2023-03-17T10:55:12.338Z,0.27
2023-03-17T10:56:52.079Z,0.27
2023-03-17T10:58:31.881Z,0.29
2023-03-17T11:00:11.516Z,0.3
2023-03-17T11:01:51.353Z,0.27
2023-03-17T11:03:31.267Z,0.3
2023-03-17T11:05:10.963Z,0.27
2023-03-17T11:06:50.585Z,0.28
2023-03-17T11:08:30.504Z,0.26
2023-03-17T11:10:10.276Z,0.29
2023-03-17T11:11:50.054Z,0.25
2023-03-17T11:13:29.732Z,0.29
2023-03-17T11:15:09.610Z,0.31
2023-03-17T11:16:49.354Z,0.29
2023-03-17T11:18:29.048Z,0.28
2023-03-17T11:20:08.853Z,0.27
2023-03-17T11:21:48.718Z,0.31
2023-03-17T11:23:28.310Z,0.27
2023-03-17T11:25:08.247Z,0.27
2023-03-17T11:26:48.006Z,0.27
2023-03-17T11:28:27.763Z,0.28
2023-03-17T11:30:07.535Z,0.24
2023-03-17T11:31:47.234Z,0.26
2023-03-17T11:33:27.057Z,0.27
2023-03-17T11:35:06.902Z,0.27
2023-03-17T11:36:46.454Z,0.25
2023-03-17T11:38:26.424Z,0.26
2023-03-17T11:40:05.992Z,0.3
2023-03-17T11:41:45.979Z,0.28
2023-03-17T11:43:25.525Z,0.27
2023-03-17T11:45:05.497Z,0.25
2023-03-17T11:46:45.167Z,0.26
2023-03-17T11:48:25.026Z,0.26
2023-03-17T11:50:04.805Z,0.25
2023-03-17T11:51:44.543Z,0.26
2023-03-17T11:53:24.278Z,0.27
2023-03-17T11:55:04.062Z,0.26
2023-03-17T11:56:43.883Z,0.26
2023-03-17T11:58:23.561Z,0.23
2023-03-17T12:00:03.405Z,0.3
2023-03-17T12:01:43.185Z,0.26
2023-03-17T12:03:22.861Z,0.24
2023-03-17T12:05:02.761Z,0.36
2023-03-17T12:06:42.414Z,0.26
2023-03-17T12:08:22.266Z,0.28
2023-03-17T12:10:02.053Z,0.28
2023-03-17T12:11:41.840Z,0.26
2023-03-17T12:13:21.390Z,0.27
2023-03-17T12:15:01.361Z,0.24
2023-03-17T12:16:41.099Z,0.29
2023-03-17T12:18:20.864Z,0.26
2023-03-17T12:20:00.639Z,0.26
2023-03-17T12:21:40.425Z,0.25
2023-03-17T12:23:20.018Z,0.27
2023-03-17T12:24:59.925Z,0.27
2023-03-17T12:26:39.609Z,0.24
2023-03-17T12:28:19.517Z,0.23
2023-03-17T12:29:59.299Z,0.27
2023-03-17T12:31:38.864Z,0.23
2023-03-17T12:33:18.688Z,0.27
2023-03-17T12:34:58.498Z,0.23
2023-03-17T12:36:38.394Z,0.21
2023-03-17T12:38:18.105Z,0.23
2023-03-17T12:39:57.722Z,0.23
2023-03-17T12:41:37.563Z,0.28
2023-03-17T12:43:17.298Z,0.23
2023-03-17T12:44:57.027Z,0.24
2023-03-17T12:46:36.893Z,0.24
2023-03-17T12:48:16.573Z,0.23
2023-03-17T12:49:56.354Z,0.24
2023-03-17T12:51:36.112Z,0.28
2023-03-17T12:53:15.906Z,0.24
2023-03-17T12:54:55.803Z,0.25
2023-03-17T12:56:35.515Z,0.22
2023-03-17T12:58:15.284Z,0.24
2023-03-17T12:59:54.967Z,0.21
2023-03-17T13:01:34.777Z,0.23
2023-03-17T13:03:14.498Z,0.25
2023-03-17T13:04:54.292Z,0.23
2023-03-17T13:06:34.080Z,0.25
2023-03-17T13:08:13.926Z,0.27
2023-03-17T13:09:53.689Z,0.25
2023-03-17T13:11:33.362Z,0.22
2023-03-17T13:13:13.140Z,0.25
2023-03-17T13:14:52.919Z,0.2
2023-03-17T13:16:32.661Z,0.22
2023-03-17T13:18:12.431Z,0.27
2023-03-17T13:19:52.217Z,0.27
2023-03-17T13:21:32.005Z,0.21
2023-03-17T13:23:11.751Z,0.3
2023-03-17T13:24:51.577Z,0.2
2023-03-17T13:26:31.268Z,0.22
2023-03-17T13:28:11.056Z,0.24
2023-03-17T13:29:50.898Z,0.26
2023-03-17T13:31:30.595Z,0.26
2023-03-17T13:33:10.404Z,0.25
2023-03-17T13:34:50.153Z,0.19
2023-03-17T13:36:29.994Z,0.23
2023-03-17T13:38:09.679Z,0.22
2023-03-17T13:39:49.448Z,0.2
2023-03-17T13:41:29.279Z,0.23
2023-03-17T13:43:08.982Z,0.19
2023-03-17T13:44:48.874Z,0.25
2023-03-17T13:46:28.532Z,0.21
2023-03-17T13:48:08.284Z,0.21
2023-03-17T13:49:48.069Z,0.19
2023-03-17T13:51:27.913Z,0.25
2023-03-17T13:53:07.754Z,0.2
2023-03-17T13:54:47.535Z,0.24
2023-03-17T13:56:27.248Z,0.23
2023-03-17T13:58:06.920Z,0.22
2023-03-17T13:59:46.687Z,0.26
2023-03-17T14:01:26.465Z,0.25
2023-03-17T14:03:06.272Z,0.23
2023-03-17T14:04:46.009Z,0.2
2023-03-17T14:06:25.876Z,0.25
2023-03-17T14:08:05.556Z,0.21
2023-03-17T14:09:45.325Z,0.24
2023-03-17T14:11:25.095Z,0.23
2023-03-17T14:13:04.873Z,0.21
2023-03-17T14:14:44.632Z,0.19
2023-03-17T14:16:24.391Z,0.22
2023-03-17T14:18:04.258Z,0.24
2023-03-17T14:19:43.996Z,0.25
2023-03-17T14:21:23.800Z,0.24
2023-03-17T14:23:03.621Z,0.23
2023-03-17T14:24:43.249Z,0.22
2023-03-17T14:26:23.020Z,0.19
2023-03-17T14:28:02.832Z,0.23
2023-03-17T14:29:42.579Z,0.22
2023-03-17T14:31:22.437Z,0.23
2023-03-17T14:33:02.104Z,0.23
2023-03-17T14:34:41.873Z,0.22
2023-03-17T14:36:21.716Z,0.24
2023-03-17T14:38:01.425Z,0.23
2023-03-17T14:39:41.243Z,0.2
2023-03-17T14:41:20.977Z,0.19
2023-03-17T14:43:00.754Z,0.2
2023-03-17T14:44:40.583Z,0.22
2023-03-17T14:46:20.350Z,0.21
2023-03-17T14:48:00.124Z,0.2
2023-03-17T14:49:39.972Z,0.22
2023-03-17T14:51:19.582Z,0.21
2023-03-17T14:52:59.519Z,0.23
2023-03-17T14:54:39.141Z,0.21
2023-03-17T14:56:18.957Z,0.2
2023-03-17T14:57:58.657Z,0.2
2023-03-17T14:59:38.469Z,0.23
2023-03-17T15:01:18.223Z,0.21
2023-03-17T15:02:57.960Z,0.23
2023-03-17T15:04:37.912Z,0.21
2023-03-17T15:06:17.629Z,0.21
2023-03-17T15:07:57.331Z,0.19
2023-03-17T15:09:37.058Z,0.22
2023-03-17T15:11:17.016Z,0.2
2023-03-17T15:12:56.628Z,0.17
2023-03-17T15:14:36.354Z,0.21
2023-03-17T15:16:16.130Z,0.19
2023-03-17T15:17:55.908Z,0.2
2023-03-17T15:19:35.734Z,0.18
2023-03-17T15:21:15.465Z,0.19
2023-03-17T15:22:55.237Z,0.22
2023-03-17T15:24:34.982Z,0.22
2023-03-17T15:26:14.770Z,0.22
2023-03-17T15:27:54.535Z,0.21
2023-03-17T15:29:34.303Z,0.21
2023-03-17T15:31:14.066Z,0.18
2023-03-17T15:32:53.826Z,0.17
2023-03-17T15:34:33.683Z,0.21
2023-03-17T15:36:13.523Z,0.2
2023-03-17T15:37:53.149Z,0.21
2023-03-17T15:39:32.967Z,0.21
2023-03-17T15:41:12.764Z,0.21
2023-03-17T15:42:52.541Z,0.22
2023-03-17T15:44:32.391Z,0.2
2023-03-17T15:46:12.099Z,0.2
2023-03-17T15:47:51.904Z,0.21
2023-03-17T15:49:31.553Z,0.2
2023-03-17T15:51:11.336Z,0.19
2023-03-17T15:52:51.150Z,0.2
2023-03-17T15:54:30.980Z,0.19
2023-03-17T15:56:10.681Z,0.21
2023-03-17T15:57:50.510Z,0.21
2023-03-17T15:59:30.277Z,0.07
2023-03-17T16:01:10.021Z,0.2
2023-03-17T16:02:49.866Z,0.22
2023-03-17T16:04:29.543Z,0.21
2023-03-17T16:06:09.370Z,0.22
2023-03-17T16:07:49.108Z,0.2
2023-03-17T16:09:28.828Z,0.21
2023-03-17T16:11:08.681Z,0.24
2023-03-17T16:12:48.331Z,0.21
2023-03-17T16:14:28.159Z,0.22
2023-03-17T16:16:07.985Z,0.2
2023-03-17T16:17:47.694Z,0.22
2023-03-17T16:19:27.420Z,0.2
2023-03-17T16:21:07.172Z,0.21
2023-03-17T16:22:46.963Z,0.2
2023-03-17T16:24:26.747Z,0.23
2023-03-17T16:26:06.503Z,0.22
2023-03-17T16:27:46.267Z,0.18
2023-03-17T16:29:26.095Z,0.2
2023-03-17T16:31:05.873Z,0.19
2023-03-17T16:32:45.574Z,0.24
2023-03-17T16:34:25.409Z,0.21
2023-03-17T16:36:05.117Z,0.18
2023-03-17T16:37:45.069Z,0.23
2023-03-17T16:39:24.746Z,0.22
2023-03-17T16:41:04.415Z,0.21
2023-03-17T16:42:44.390Z,0.24
2023-03-17T16:44:23.958Z,0.24
2023-03-17T16:46:04.060Z,0.21
2023-03-17T16:47:43.556Z,0.22
2023-03-17T16:49:23.297Z,0.22
2023-03-17T16:51:03.049Z,0.16
2023-03-17T16:52:42.818Z,0.05
2023-03-17T16:54:22.575Z,0.01
2023-03-17T16:56:02.364Z,0.05
2023-03-17T16:57:42.122Z,0.04
2023-03-17T16:59:21.934Z,0.05
2023-03-17T17:01:01.715Z,0
2023-03-17T17:02:41.419Z,0
2023-03-17T17:04:21.323Z,0
2023-03-17T17:06:00.985Z,0
2023-03-17T17:07:40.727Z,0
2023-03-17T17:09:20.488Z,0
2023-03-17T17:11:00.402Z,0
2023-03-17T17:12:40.043Z,0
2023-03-17T17:14:19.840Z,0
2023-03-17T17:15:59.618Z,0
2023-03-17T17:17:39.336Z,0
2023-03-17T17:19:19.228Z,0
2023-03-17T17:20:58.923Z,0
2023-03-17T17:22:38.635Z,0
2023-03-17T17:24:18.406Z,0
2023-03-17T17:25:58.186Z,0
2023-03-17T17:27:37.960Z,0
2023-03-17T17:29:17.728Z,0
2023-03-17T17:30:57.603Z,0
2023-03-17T17:32:37.323Z,0
2023-03-17T17:34:17.096Z,0
2023-03-17T17:35:56.773Z,0
2023-03-17T17:37:36.671Z,0
2023-03-17T17:39:16.300Z,0
2023-03-17T17:40:56.147Z,0
2023-03-17T17:42:35.843Z,0
2023-03-17T17:44:15.636Z,0
2023-03-17T17:45:55.389Z,0
2023-03-17T17:47:35.149Z,0
2023-03-17T17:49:14.927Z,0
2023-03-17T17:50:54.674Z,0
2023-03-17T17:52:34.456Z,0
2023-03-17T17:54:14.247Z,0
2023-03-17T17:55:54.005Z,0
2023-03-17T17:57:33.743Z,0
2023-03-17T17:59:13.551Z,0
2023-03-17T18:00:53.296Z,0
2023-03-17T18:02:33.048Z,0
2023-03-17T18:04:12.811Z,0
2023-03-17T18:05:52.588Z,0
2023-03-17T18:07:32.361Z,0
2023-03-17T18:09:12.115Z,0
2023-03-17T18:10:51.881Z,0
2023-03-17T18:12:31.645Z,0
2023-03-17T18:14:11.434Z,0
2023-03-17T18:15:51.197Z,0
2023-03-17T18:17:30.959Z,0
2023-03-17T18:19:10.722Z,0
2023-03-17T18:20:50.481Z,0
2023-03-17T18:22:30.259Z,0
2023-03-17T18:24:10.039Z,0
2023-03-17T18:25:49.813Z,0
2023-03-17T18:27:29.561Z,0
2023-03-17T18:29:09.326Z,0
2023-03-17T18:30:49.119Z,0
2023-03-17T18:32:28.874Z,0
2023-03-17T18:34:08.649Z,0
2023-03-17T18:35:48.410Z,0
2023-03-17T18:37:28.168Z,0
2023-03-17T18:39:07.957Z,0
2023-03-17T18:40:47.692Z,0
2023-03-17T18:42:27.483Z,0
2023-03-17T18:44:07.244Z,0
2023-03-17T18:45:47.003Z,0
2023-03-17T18:47:26.753Z,0
2023-03-17T18:49:06.548Z,0
2023-03-17T18:50:46.473Z,0
2023-03-17T18:52:26.084Z,0
2023-03-17T18:54:05.834Z,0
2023-03-17T18:55:45.598Z,0
2023-03-17T18:57:25.407Z,0
2023-03-17T18:59:05.142Z,0
2023-03-17T19:00:44.909Z,0
2023-03-17T19:02:24.690Z,0
2023-03-17T19:04:04.450Z,0
2023-03-17T19:05:44.212Z,0
2023-03-17T19:07:23.997Z,0
2023-03-17T19:09:03.791Z,0
2023-03-17T19:10:43.676Z,0
2023-03-17T19:12:23.305Z,0
2023-03-17T19:14:03.095Z,0
2023-03-17T19:15:42.824Z,0
2023-03-17T19:17:22.620Z,0
2023-03-17T19:19:02.361Z,0
2023-03-17T19:20:42.211Z,0
2023-03-17T19:22:21.875Z,0
2023-03-17T19:24:01.688Z,0
2023-03-17T19:25:41.415Z,0
2023-03-17T19:27:21.172Z,0
2023-03-17T19:29:00.966Z,0
2023-03-17T19:30:40.760Z,0
2023-03-17T19:32:20.488Z,0
2023-03-17T19:34:00.251Z,0
2023-03-17T19:35:40.015Z,0
2023-03-17T19:37:19.861Z,0
2023-03-17T19:38:59.622Z,0
2023-03-17T19:40:39.558Z,0
2023-03-17T19:42:19.082Z,0
2023-03-17T19:43:58.862Z,0
2023-03-17T19:45:38.627Z,0
2023-03-17T19:47:18.400Z,0
2023-03-17T19:48:58.156Z,0
2023-03-17T19:50:38.002Z,0
2023-03-17T19:52:17.726Z,0
2023-03-17T19:53:57.465Z,0
2023-03-17T19:55:37.366Z,0
2023-03-17T19:57:17.000Z,0
2023-03-17T19:58:56.768Z,0
2023-03-17T20:00:36.682Z,0
2023-03-17T20:02:16.301Z,0
2023-03-17T20:03:56.221Z,0
2023-03-17T20:05:35.854Z,0
2023-03-17T20:07:15.606Z,0
2023-03-17T20:08:55.431Z,0
2023-03-17T20:10:35.274Z,0
2023-03-17T20:12:14.908Z,0
2023-03-17T20:13:54.671Z,0
2023-03-17T20:15:34.442Z,0
2023-03-17T20:17:14.275Z,0
2023-03-17T20:18:53.975Z,0
2023-03-17T20:20:33.982Z,0
2023-03-17T20:22:13.496Z,0
2023-03-17T20:23:53.323Z,0
2023-03-17T20:25:33.079Z,0
2023-03-17T20:27:12.846Z,0
2023-03-17T20:28:52.591Z,0
2023-03-17T20:30:32.509Z,0
2023-03-17T20:32:12.121Z,0
2023-03-17T20:33:51.880Z,0
2023-03-17T20:35:31.645Z,0
2023-03-17T20:37:11.450Z,0
2023-03-17T20:38:51.230Z,0
2023-03-17T20:40:30.949Z,0
2023-03-17T20:42:10.726Z,0
2023-03-17T20:43:50.472Z,0
2023-03-17T20:45:30.257Z,0
2023-03-17T20:47:10.016Z,0
2023-03-17T20:48:49.860Z,0
2023-03-17T20:50:29.741Z,0
2023-03-17T20:52:09.381Z,0
2023-03-17T20:53:49.084Z,0
2023-03-17T20:55:28.859Z,0
2023-03-17T20:57:08.638Z,0
2023-03-17T20:58:48.440Z,0
2023-03-17T21:00:28.333Z,0
2023-03-17T21:02:08.028Z,0
2023-03-17T21:03:47.701Z,0
2023-03-17T21:05:27.488Z,0
2023-03-17T21:07:07.229Z,0
2023-03-17T21:08:46.989Z,0
2023-03-17T21:10:26.914Z,0
2023-03-17T21:12:06.618Z,0
2023-03-17T21:13:46.275Z,0
2023-03-17T21:15:26.088Z,0
2023-03-17T21:17:05.884Z,0
2023-03-17T21:18:45.608Z,0
2023-03-17T21:20:25.421Z,0
2023-03-17T21:22:05.131Z,0
2023-03-17T21:23:44.984Z,0
2023-03-17T21:25:24.669Z,0
2023-03-17T21:27:04.453Z,0
2023-03-17T21:28:44.241Z,0
2023-03-17T21:30:24.005Z,0
2023-03-17T21:32:04.125Z,0
2023-03-17T21:33:43.509Z,0
2023-03-17T21:35:23.322Z,0
2023-03-17T21:37:03.038Z,0
2023-03-17T21:38:42.833Z,0
2023-03-17T21:40:22.684Z,0
2023-03-17T21:42:02.337Z,0
2023-03-17T21:43:42.104Z,0
2023-03-17T21:45:21.954Z,0
2023-03-17T21:47:01.655Z,0
2023-03-17T21:48:41.420Z,0
2023-03-17T21:50:21.342Z,0
2023-03-17T21:52:01.144Z,0
2023-03-17T21:53:40.711Z,0
2023-03-17T21:55:20.475Z,0
2023-03-17T21:57:00.306Z,0
2023-03-17T21:58:40.032Z,0
2023-03-17T22:00:19.774Z,0
2023-03-17T22:01:59.541Z,0
2023-03-17T22:03:39.362Z,0
2023-03-17T22:05:19.096Z,0
2023-03-17T22:06:58.860Z,0
2023-03-17T22:08:38.611Z,0
2023-03-17T22:10:18.479Z,0
2023-03-17T22:11:58.225Z,0
2023-03-17T22:13:37.945Z,0
2023-03-17T22:15:17.691Z,0
2023-03-17T22:16:57.472Z,0
2023-03-17T22:18:37.254Z,0
2023-03-17T22:20:17.014Z,0
2023-03-17T22:21:56.828Z,0
2023-03-17T22:23:36.529Z,0
2023-03-17T22:25:16.468Z,0
2023-03-17T22:26:56.053Z,0
2023-03-17T22:28:35.845Z,0
2023-03-17T22:30:15.686Z,0
2023-03-17T22:31:55.462Z,0
2023-03-17T22:33:35.135Z,0
2023-03-17T22:35:14.908Z,0
2023-03-17T22:36:54.748Z,0
2023-03-17T22:38:34.457Z,0
2023-03-17T22:40:14.238Z,0
2023-03-17T22:41:53.961Z,0
2023-03-17T22:43:33.749Z,0
2023-03-17T22:45:13.499Z,0
2023-03-17T22:46:53.281Z,0
2023-03-17T22:48:33.053Z,0
2023-03-17T22:50:12.805Z,0
2023-03-17T22:51:52.646Z,0
2023-03-17T22:53:32.369Z,0
2023-03-17T22:55:12.109Z,0
2023-03-17T22:56:51.879Z,0
2023-03-17T22:58:31.651Z,0
2023-03-17T23:00:11.426Z,0
2023-03-17T23:01:51.229Z,0
2023-03-17T23:03:30.959Z,0
2023-03-17T23:05:10.715Z,0
2023-03-17T23:06:50.481Z,0
2023-03-17T23:08:30.325Z,0
2023-03-17T23:10:10.008Z,0
2023-03-17T23:11:49.901Z,0
2023-03-17T23:13:29.563Z,0
2023-03-17T23:15:09.404Z,0
2023-03-17T23:16:49.093Z,0
2023-03-17T23:18:28.860Z,0
2023-03-17T23:20:08.621Z,0
2023-03-17T23:21:48.457Z,0